createdAt,value
2022-12-20T00:01:49.450Z,11.80
2022-12-20T00:03:53.908Z,11.80
2022-12-20T00:05:56.492Z,11.90
2022-12-20T00:07:59.027Z,11.90
2022-12-20T00:10:01.692Z,11.90
2022-12-20T00:12:04.653Z,11.90
2022-12-20T00:14:07.412Z,11.90
2022-12-20T00:16:11.687Z,11.90
2022-12-20T00:18:14.247Z,11.80
2022-12-20T00:20:16.949Z,11.90
2022-12-20T00:22:19.440Z,11.90
2022-12-20T00:24:26.035Z,11.90
2022-12-20T00:26:27.323Z,11.80
2022-12-20T00:28:30.704Z,11.80
2022-12-20T00:30:36.361Z,11.80
2022-12-20T00:32:40.592Z,11.80
2022-12-20T00:34:43.570Z,11.80
2022-12-20T00:36:46.187Z,11.80
2022-12-20T00:38:49.651Z,11.80
2022-12-20T00:41:00.415Z,11.90
2022-12-20T00:43:03.828Z,11.90
2022-12-20T00:45:07.883Z,11.90
2022-12-20T00:47:10.521Z,11.90
2022-12-20T00:49:13.289Z,11.90
2022-12-20T00:51:17.178Z,11.90
2022-12-20T00:53:26.023Z,12.00
2022-12-20T00:55:24.157Z,11.90
2022-12-20T00:57:26.779Z,11.90
2022-12-20T00:59:29.806Z,12.00
2022-12-20T01:01:34.309Z,11.90
2022-12-20T01:03:37.077Z,11.90
2022-12-20T01:05:39.818Z,11.90
2022-12-20T01:07:42.429Z,11.90
2022-12-20T01:09:44.890Z,11.90
2022-12-20T01:11:47.736Z,11.80
2022-12-20T01:13:51.694Z,11.80
2022-12-20T01:15:54.205Z,11.90
2022-12-20T01:17:57.290Z,11.90
2022-12-20T01:19:59.887Z,12.00
2022-12-20T01:22:02.375Z,12.00
2022-12-20T01:24:05.508Z,12.00
2022-12-20T01:26:09.219Z,12.00
2022-12-20T01:28:11.808Z,12.10
2022-12-20T01:30:14.901Z,12.10
2022-12-20T01:32:17.498Z,12.10
2022-12-20T01:34:20.270Z,12.20
2022-12-20T01:36:24.575Z,12.20
2022-12-20T01:38:27.281Z,12.20
2022-12-20T01:40:29.767Z,12.20
2022-12-20T01:42:32.353Z,12.20
2022-12-20T01:44:57.534Z,12.30
2022-12-20T01:47:00.208Z,12.30
2022-12-20T01:49:05.163Z,12.30
2022-12-20T01:51:08.038Z,12.30
2022-12-20T01:53:11.359Z,12.30
2022-12-20T01:55:15.999Z,12.30
2022-12-20T01:57:20.355Z,12.20
2022-12-20T01:59:22.982Z,12.20
2022-12-20T02:01:25.893Z,12.10
2022-12-20T02:03:30.928Z,12.10
2022-12-20T02:05:35.623Z,12.20
2022-12-20T02:07:38.440Z,12.20
2022-12-20T02:09:40.908Z,12.20
2022-12-20T02:11:52.426Z,12.20
2022-12-20T02:13:57.349Z,12.20
2022-12-20T02:16:01.143Z,12.30
2022-12-20T02:18:07.863Z,12.30
2022-12-20T02:20:41.898Z,12.30
2022-12-20T02:25:23.686Z,12.30
2022-12-20T02:27:33.581Z,12.30
2022-12-20T02:29:37.202Z,12.40
2022-12-20T02:31:41.644Z,12.30
2022-12-20T02:33:46.913Z,12.30
2022-12-20T02:35:49.743Z,12.30
2022-12-20T02:37:53.408Z,12.20
2022-12-20T02:39:56.150Z,12.20
2022-12-20T02:42:00.440Z,12.10
2022-12-20T02:44:22.959Z,12.10
2022-12-20T02:46:26.529Z,12.00
2022-12-20T02:48:31.372Z,11.90
2022-12-20T02:50:36.621Z,11.90
2022-12-20T02:52:41.975Z,12.00
2022-12-20T02:54:44.002Z,11.90
2022-12-20T02:56:48.425Z,11.90
2022-12-20T02:58:52.848Z,11.90
2022-12-20T03:00:59.074Z,11.90
2022-12-20T03:03:19.860Z,11.90
2022-12-20T03:05:24.378Z,11.80
2022-12-20T03:07:28.292Z,11.80
2022-12-20T03:09:32.717Z,11.80
2022-12-20T03:11:35.308Z,11.80
2022-12-20T03:13:38.180Z,11.80
2022-12-20T03:15:42.690Z,11.80
2022-12-20T03:17:45.268Z,11.90
2022-12-20T03:19:48.079Z,11.80
2022-12-20T03:21:50.691Z,11.80
2022-12-20T03:23:53.317Z,11.90
2022-12-20T03:25:56.122Z,11.90
2022-12-20T03:28:00.563Z,11.90
2022-12-20T03:30:04.455Z,11.90
2022-12-20T03:32:08.235Z,11.90
2022-12-20T03:34:10.776Z,12.00
2022-12-20T03:36:13.654Z,11.90
2022-12-20T03:38:16.867Z,11.90
2022-12-20T03:40:19.620Z,11.90
2022-12-20T03:42:22.395Z,11.90
2022-12-20T03:44:25.082Z,11.90
2022-12-20T03:46:28.024Z,11.80
2022-12-20T03:48:31.045Z,11.80
2022-12-20T03:50:35.904Z,11.80
2022-12-20T03:52:38.484Z,11.80
2022-12-20T03:54:41.602Z,11.70
2022-12-20T03:56:45.968Z,11.60
2022-12-20T03:58:48.684Z,11.60
2022-12-20T04:00:54.385Z,11.60
2022-12-20T04:02:59.067Z,11.50
2022-12-20T04:05:02.890Z,11.40
2022-12-20T04:07:05.581Z,11.40
2022-12-20T04:09:08.273Z,11.40
2022-12-20T04:11:15.974Z,11.40
2022-12-20T04:13:20.385Z,11.40
2022-12-20T04:15:23.523Z,11.40
2022-12-20T04:17:26.688Z,11.40
2022-12-20T04:19:30.504Z,11.40
2022-12-20T04:21:34.792Z,11.40
2022-12-20T04:23:40.232Z,11.30
2022-12-20T04:25:43.235Z,11.30
2022-12-20T04:27:47.100Z,11.30
2022-12-20T04:29:49.802Z,11.30
2022-12-20T04:31:52.953Z,11.30
2022-12-20T04:33:55.732Z,11.30
2022-12-20T04:35:58.463Z,11.30
2022-12-20T04:38:01.140Z,11.20
2022-12-20T04:40:04.306Z,11.20
2022-12-20T04:42:08.706Z,11.20
2022-12-20T04:44:11.602Z,11.20
2022-12-20T04:46:14.459Z,11.20
2022-12-20T04:48:54.517Z,11.20
2022-12-20T04:50:21.521Z,11.20
2022-12-20T04:52:47.592Z,11.10
2022-12-20T04:54:47.203Z,11.10
2022-12-20T04:56:51.617Z,11.10
2022-12-20T04:58:56.999Z,11.10
2022-12-20T05:00:59.913Z,11.10
2022-12-20T05:03:04.483Z,11.00
2022-12-20T05:05:08.106Z,11.00
2022-12-20T05:07:12.836Z,11.00
2022-12-20T05:09:16.743Z,11.00
2022-12-20T05:11:19.351Z,11.00
2022-12-20T05:13:22.738Z,11.10
2022-12-20T05:15:25.327Z,11.10
2022-12-20T05:17:28.289Z,11.10
2022-12-20T05:19:30.881Z,11.10
2022-12-20T05:21:51.667Z,11.20
2022-12-20T05:24:12.458Z,11.20
2022-12-20T05:26:19.532Z,11.20
2022-12-20T05:28:22.519Z,11.20
2022-12-20T05:30:25.711Z,11.20
2022-12-20T05:32:28.400Z,11.10
2022-12-20T05:34:30.983Z,11.00
2022-12-20T05:36:33.606Z,10.90
2022-12-20T05:38:36.495Z,10.90
2022-12-20T05:40:41.010Z,10.90
2022-12-20T05:42:44.459Z,10.90
2022-12-20T05:44:47.077Z,10.80
2022-12-20T05:46:49.708Z,10.80
2022-12-20T05:48:54.119Z,10.70
2022-12-20T05:50:56.745Z,10.60
2022-12-20T05:53:05.984Z,10.70
2022-12-20T05:55:06.296Z,10.60
2022-12-20T05:57:09.725Z,10.70
2022-12-20T05:59:14.198Z,10.70
2022-12-20T06:01:18.206Z,10.70
2022-12-20T06:03:21.656Z,10.70
2022-12-20T06:05:25.763Z,10.70
2022-12-20T06:07:31.211Z,10.70
2022-12-20T06:09:35.539Z,10.70
2022-12-20T06:11:40.091Z,10.70
2022-12-20T06:13:44.643Z,10.70
2022-12-20T06:15:47.292Z,10.80
2022-12-20T06:17:49.863Z,10.80
2022-12-20T06:19:52.575Z,10.80
2022-12-20T06:21:55.135Z,10.80
2022-12-20T06:24:00.988Z,10.80
2022-12-20T06:26:04.952Z,10.80
2022-12-20T06:28:10.175Z,10.90
2022-12-20T06:30:13.748Z,10.90
2022-12-20T06:32:19.011Z,10.90
2022-12-20T06:34:23.359Z,11.00
2022-12-20T06:36:26.238Z,11.00
2022-12-20T06:38:30.307Z,11.10
2022-12-20T06:40:33.056Z,11.10
2022-12-20T06:42:36.982Z,11.10
2022-12-20T06:44:39.602Z,11.10
2022-12-20T06:46:42.525Z,11.10
2022-12-20T06:48:45.537Z,11.10
2022-12-20T06:50:55.262Z,11.20
2022-12-20T06:52:55.061Z,11.20
2022-12-20T06:54:59.394Z,11.20
2022-12-20T06:57:02.100Z,11.20
2022-12-20T06:59:05.651Z,11.30
2022-12-20T07:01:08.650Z,11.30
2022-12-20T07:03:11.420Z,11.40
2022-12-20T07:05:14.153Z,11.40
2022-12-20T07:07:17.049Z,11.50
2022-12-20T07:09:19.548Z,11.40
2022-12-20T07:11:22.513Z,11.40
2022-12-20T07:13:26.058Z,11.40
2022-12-20T07:15:28.957Z,11.40
2022-12-20T07:17:31.451Z,11.50
2022-12-20T07:19:36.096Z,11.40
2022-12-20T07:21:39.468Z,11.40
2022-12-20T07:23:42.598Z,11.40
2022-12-20T07:25:46.928Z,11.40
2022-12-20T07:27:49.874Z,11.50
2022-12-20T07:29:52.450Z,11.50
2022-12-20T07:31:54.955Z,11.50
2022-12-20T07:33:57.517Z,11.50
2022-12-20T07:36:03.628Z,11.60
2022-12-20T07:38:06.152Z,11.60
2022-12-20T07:40:11.249Z,11.60
2022-12-20T07:42:14.942Z,11.60
2022-12-20T07:44:18.571Z,11.60
2022-12-20T07:46:21.560Z,11.70
2022-12-20T07:48:24.664Z,11.60
2022-12-20T07:50:27.744Z,11.60
2022-12-20T07:52:32.812Z,11.60
2022-12-20T07:54:36.901Z,11.60
2022-12-20T07:56:41.905Z,11.60
2022-12-20T07:58:45.079Z,11.60
2022-12-20T08:00:47.563Z,11.60
2022-12-20T08:02:52.021Z,11.60
2022-12-20T08:04:55.343Z,11.60
2022-12-20T08:06:59.791Z,11.60
2022-12-20T08:09:03.562Z,11.60
2022-12-20T08:11:07.036Z,11.60
2022-12-20T08:13:09.743Z,11.70
2022-12-20T08:15:12.463Z,11.70
2022-12-20T08:17:15.045Z,11.80
2022-12-20T08:19:17.590Z,11.80
2022-12-20T08:21:20.098Z,11.90
2022-12-20T08:23:22.575Z,11.90
2022-12-20T08:25:25.414Z,12.00
2022-12-20T08:27:28.322Z,12.00
2022-12-20T08:29:30.843Z,12.10
2022-12-20T08:31:33.375Z,12.20
2022-12-20T08:33:37.233Z,12.20
2022-12-20T08:35:39.774Z,12.30
2022-12-20T08:37:42.609Z,12.30
2022-12-20T08:39:45.203Z,12.20
2022-12-20T08:41:47.681Z,12.20
2022-12-20T08:43:50.162Z,12.20
2022-12-20T08:45:54.330Z,12.20
2022-12-20T08:47:57.262Z,12.30
2022-12-20T08:50:00.644Z,12.30
2022-12-20T08:52:03.284Z,12.30
2022-12-20T08:54:05.832Z,12.30
2022-12-20T08:56:09.430Z,12.20
2022-12-20T08:58:12.037Z,12.20
2022-12-20T09:00:15.634Z,12.20
2022-12-20T09:02:18.225Z,12.20
2022-12-20T09:04:21.149Z,12.30
2022-12-20T09:06:23.846Z,12.30
2022-12-20T09:08:26.962Z,12.30
2022-12-20T09:10:29.806Z,12.40
2022-12-20T09:12:32.291Z,12.50
2022-12-20T09:14:34.807Z,12.40
2022-12-20T09:16:37.446Z,12.50
2022-12-20T09:18:39.895Z,12.40
2022-12-20T09:20:44.189Z,12.50
2022-12-20T09:22:46.671Z,12.40
2022-12-20T09:24:49.186Z,12.50
2022-12-20T09:26:52.091Z,12.50
2022-12-20T09:28:54.939Z,12.50
2022-12-20T09:30:58.573Z,12.50
2022-12-20T09:33:10.208Z,12.50
2022-12-20T09:35:06.573Z,12.60
2022-12-20T09:37:09.130Z,12.60
2022-12-20T09:39:11.649Z,12.60
2022-12-20T09:41:22.758Z,12.60
2022-12-20T09:43:25.538Z,12.60
2022-12-20T09:45:29.431Z,12.60
2022-12-20T09:47:33.160Z,12.70
2022-12-20T09:49:36.430Z,12.60
2022-12-20T09:51:43.817Z,12.60
2022-12-20T09:53:49.165Z,12.70
2022-12-20T09:55:53.463Z,12.70
2022-12-20T09:58:00.339Z,12.70
2022-12-20T10:00:05.190Z,12.70
2022-12-20T10:02:44.092Z,12.70
2022-12-20T10:04:18.053Z,12.80
2022-12-20T10:06:23.381Z,12.70
2022-12-20T10:08:30.023Z,12.70
2022-12-20T10:10:52.731Z,12.70
2022-12-20T10:12:57.349Z,12.70
2022-12-20T10:15:03.844Z,12.80
2022-12-20T10:17:09.463Z,12.80
2022-12-20T10:19:18.640Z,12.90
2022-12-20T10:21:23.620Z,12.80
2022-12-20T10:23:33.157Z,12.90
2022-12-20T10:25:33.955Z,12.90
2022-12-20T10:27:38.398Z,13.00
2022-12-20T10:29:41.268Z,13.00
2022-12-20T10:31:44.353Z,13.00
2022-12-20T10:33:47.017Z,13.00
2022-12-20T10:35:50.380Z,13.00
2022-12-20T10:38:08.912Z,13.10
2022-12-20T10:40:07.832Z,13.10
2022-12-20T10:42:23.915Z,13.10
2022-12-20T10:44:27.286Z,13.10
2022-12-20T10:46:38.487Z,13.20
2022-12-20T10:48:42.129Z,13.20
2022-12-20T10:50:46.833Z,13.30
2022-12-20T10:53:02.408Z,13.30
2022-12-20T10:55:07.214Z,13.30
2022-12-20T10:57:16.129Z,13.30
2022-12-20T10:59:25.388Z,13.30
2022-12-20T11:01:30.250Z,13.30
2022-12-20T11:03:32.979Z,13.30
2022-12-20T11:05:35.580Z,12.70
2022-12-20T11:07:41.284Z,13.20
2022-12-20T11:09:45.584Z,13.20
2022-12-20T11:11:58.059Z,13.20
2022-12-20T11:14:02.328Z,13.20
2022-12-20T11:16:05.507Z,13.30
2022-12-20T11:18:09.780Z,13.30
2022-12-20T11:20:21.565Z,13.30
2022-12-20T11:22:29.596Z,13.40
2022-12-20T11:24:33.932Z,13.50
2022-12-20T11:26:38.804Z,13.50
2022-12-20T11:28:48.922Z,13.50
2022-12-20T11:30:53.676Z,13.60
2022-12-20T11:33:02.423Z,13.60
2022-12-20T11:35:07.747Z,13.50
2022-12-20T11:37:14.125Z,13.60
2022-12-20T11:39:18.587Z,13.60
2022-12-20T11:41:23.654Z,13.60
2022-12-20T11:43:29.802Z,13.60
2022-12-20T11:45:36.890Z,13.60
2022-12-20T11:47:47.312Z,13.70
2022-12-20T11:49:55.681Z,13.70
2022-12-20T11:52:00.775Z,13.70
2022-12-20T11:54:06.757Z,13.70
2022-12-20T11:56:12.353Z,13.70
2022-12-20T11:58:19.608Z,13.70
2022-12-20T12:00:25.773Z,13.70
2022-12-20T12:02:33.274Z,13.70
2022-12-20T12:04:37.941Z,13.70
2022-12-20T12:06:42.375Z,13.70
2022-12-20T12:08:46.767Z,13.60
2022-12-20T12:10:52.136Z,13.70
2022-12-20T12:12:56.532Z,13.70
2022-12-20T12:15:00.370Z,13.60
2022-12-20T12:17:05.574Z,13.60
2022-12-20T12:19:10.189Z,13.50
2022-12-20T12:21:14.732Z,13.50
2022-12-20T12:23:19.768Z,13.50
2022-12-20T12:25:22.368Z,13.50
2022-12-20T12:27:26.084Z,13.50
2022-12-20T12:29:29.829Z,13.50
2022-12-20T12:31:34.633Z,13.60
2022-12-20T12:33:39.334Z,13.60
2022-12-20T12:35:53.967Z,13.60
2022-12-20T12:37:59.947Z,13.60
2022-12-20T12:40:19.039Z,13.60
2022-12-20T12:42:35.827Z,13.60
2022-12-20T12:44:41.744Z,13.60
2022-12-20T12:46:44.845Z,13.60
2022-12-20T12:48:49.723Z,13.60
2022-12-20T12:50:53.575Z,13.60
2022-12-20T12:52:57.121Z,13.60
2022-12-20T12:54:59.625Z,13.50
2022-12-20T12:57:03.025Z,13.50
2022-12-20T12:59:09.924Z,13.40
2022-12-20T13:01:12.571Z,13.40
2022-12-20T13:03:16.315Z,13.40
2022-12-20T13:05:33.688Z,13.50
2022-12-20T13:07:42.976Z,13.40
2022-12-20T13:09:45.522Z,13.40
2022-12-20T13:11:52.311Z,13.40
2022-12-20T13:13:54.774Z,13.40
2022-12-20T13:16:09.639Z,13.40
2022-12-20T13:18:21.821Z,13.40
2022-12-20T13:20:25.771Z,13.40
2022-12-20T13:22:28.405Z,13.40
2022-12-20T13:24:45.267Z,13.20
2022-12-20T13:26:52.152Z,13.30
2022-12-20T13:28:54.671Z,13.20
2022-12-20T13:31:16.422Z,13.10
2022-12-20T13:33:22.526Z,13.10
2022-12-20T13:35:32.680Z,13.10
2022-12-20T13:37:54.758Z,13.10
2022-12-20T13:39:57.302Z,13.10
2022-12-20T13:42:09.237Z,13.10
2022-12-20T13:44:36.709Z,13.10
2022-12-20T13:46:43.315Z,13.00
2022-12-20T13:48:49.071Z,12.90
2022-12-20T13:50:52.385Z,12.90
2022-12-20T13:52:55.611Z,12.90
2022-12-20T13:55:00.080Z,12.80
2022-12-20T13:57:04.794Z,12.80
2022-12-20T13:59:11.048Z,12.80
2022-12-20T14:01:14.386Z,12.70
2022-12-20T14:03:20.220Z,12.70
2022-12-20T14:05:26.031Z,12.60
2022-12-20T14:07:29.964Z,12.50
2022-12-20T14:09:33.540Z,12.50
2022-12-20T14:11:37.878Z,12.40
2022-12-20T14:13:40.938Z,12.40
2022-12-20T14:15:43.456Z,12.40
2022-12-20T14:17:45.923Z,12.30
2022-12-20T14:19:48.538Z,12.20
2022-12-20T14:21:51.906Z,12.20
2022-12-20T14:23:56.048Z,12.30
2022-12-20T14:26:00.369Z,12.30
2022-12-20T14:28:03.367Z,12.30
2022-12-20T14:30:07.276Z,12.30
2022-12-20T14:32:18.554Z,12.20
2022-12-20T14:34:29.078Z,12.30
2022-12-20T14:36:27.148Z,12.30
2022-12-20T14:38:30.528Z,12.30
2022-12-20T14:40:34.904Z,12.30
2022-12-20T14:42:39.101Z,12.30
2022-12-20T14:44:41.583Z,12.30
2022-12-20T14:46:49.127Z,12.40
2022-12-20T14:49:07.139Z,12.40
2022-12-20T14:51:09.764Z,12.40
2022-12-20T14:53:16.743Z,12.30
2022-12-20T14:55:20.505Z,12.30
2022-12-20T14:57:24.360Z,12.30
2022-12-20T14:59:27.975Z,12.30
2022-12-20T15:01:32.107Z,12.20
2022-12-20T15:03:35.858Z,12.20
2022-12-20T15:05:49.760Z,12.10
2022-12-20T15:07:52.254Z,12.00
2022-12-20T15:09:54.875Z,12.00
2022-12-20T15:11:57.718Z,12.00
2022-12-20T15:14:00.956Z,11.80
2022-12-20T15:16:05.064Z,11.70
2022-12-20T15:18:10.917Z,11.90
2022-12-20T15:20:14.508Z,11.60
2022-12-20T15:22:18.124Z,11.50
2022-12-20T15:24:22.467Z,11.40
2022-12-20T15:26:26.265Z,11.30
2022-12-20T15:28:29.161Z,11.20
2022-12-20T15:30:31.873Z,11.10
2022-12-20T15:32:34.405Z,11.10
2022-12-20T15:34:37.679Z,11.10
2022-12-20T15:36:40.230Z,11.00
2022-12-20T15:39:13.252Z,11.00
2022-12-20T15:40:48.576Z,11.00
2022-12-20T15:42:51.545Z,10.90
2022-12-20T15:44:54.052Z,10.90
2022-12-20T15:46:56.656Z,10.80
2022-12-20T15:48:59.237Z,10.80
2022-12-20T15:51:01.723Z,10.80
2022-12-20T15:53:04.260Z,10.70
2022-12-20T15:55:09.698Z,10.70
2022-12-20T15:57:13.594Z,10.70
2022-12-20T15:59:57.061Z,10.70
2022-12-20T16:01:22.789Z,10.70
2022-12-20T16:03:27.556Z,10.70
2022-12-20T16:05:30.266Z,10.70
2022-12-20T16:07:32.978Z,10.60
2022-12-20T16:09:35.618Z,10.60
2022-12-20T16:11:38.991Z,10.60
2022-12-20T16:13:41.795Z,10.60
2022-12-20T16:15:44.466Z,10.60
2022-12-20T16:17:47.027Z,10.60
2022-12-20T16:19:49.688Z,10.50
2022-12-20T16:21:53.263Z,10.50
2022-12-20T16:23:56.235Z,10.40
2022-12-20T16:25:59.146Z,10.50
2022-12-20T16:28:02.241Z,10.40
2022-12-20T16:30:06.230Z,10.40
2022-12-20T16:32:13.099Z,10.40
2022-12-20T16:34:16.369Z,10.40
2022-12-20T16:36:19.013Z,10.30
2022-12-20T16:38:21.632Z,10.40
2022-12-20T16:40:26.340Z,10.30
2022-12-20T16:42:29.105Z,10.40
2022-12-20T16:44:32.627Z,10.40
2022-12-20T16:46:35.165Z,10.30
2022-12-20T16:48:37.688Z,10.30
2022-12-20T16:50:42.053Z,10.30
2022-12-20T16:52:45.348Z,10.30
2022-12-20T16:54:47.827Z,10.30
2022-12-20T16:56:53.666Z,10.20
2022-12-20T16:59:18.396Z,10.20
2022-12-20T17:01:01.634Z,10.30
2022-12-20T17:03:04.359Z,10.30
2022-12-20T17:05:09.454Z,10.20
2022-12-20T17:07:11.984Z,10.30
2022-12-20T17:09:15.687Z,10.30
2022-12-20T17:11:18.882Z,10.30
2022-12-20T17:13:21.685Z,10.20
2022-12-20T17:15:25.155Z,10.20
2022-12-20T17:17:27.981Z,10.30
2022-12-20T17:19:31.224Z,10.20
2022-12-20T17:23:57.866Z,10.30
2022-12-20T17:26:01.686Z,10.30
2022-12-20T17:28:06.115Z,10.20
2022-12-20T17:30:11.683Z,10.30
2022-12-20T17:32:20.743Z,10.30
2022-12-20T17:34:25.109Z,10.30
2022-12-20T17:36:30.757Z,10.30
2022-12-20T17:38:32.572Z,10.30
2022-12-20T17:40:35.798Z,10.30
2022-12-20T17:42:38.748Z,10.40
2022-12-20T17:44:41.857Z,10.40
2022-12-20T17:46:44.369Z,10.40
2022-12-20T17:48:47.376Z,10.40
2022-12-20T17:50:49.904Z,10.40
2022-12-20T17:52:53.964Z,10.40
2022-12-20T17:54:56.516Z,10.40
2022-12-20T17:56:59.059Z,10.40
2022-12-20T17:59:02.223Z,10.40
2022-12-20T18:01:05.028Z,10.40
2022-12-20T18:03:20.033Z,10.30
2022-12-20T18:05:14.711Z,10.30
2022-12-20T18:07:17.355Z,10.30
2022-12-20T18:09:20.836Z,10.70
2022-12-20T18:11:24.424Z,10.30
2022-12-20T18:13:26.987Z,10.40
2022-12-20T18:15:29.829Z,10.40
2022-12-20T18:17:32.712Z,10.40
2022-12-20T18:19:35.332Z,10.30
2022-12-20T18:21:40.570Z,10.40
2022-12-20T18:23:45.783Z,10.30
2022-12-20T18:25:50.216Z,10.40
2022-12-20T18:28:19.339Z,10.40
2022-12-20T18:30:25.525Z,10.30
2022-12-20T18:32:30.577Z,10.40
2022-12-20T18:34:33.994Z,10.40
2022-12-20T18:36:39.231Z,10.40
2022-12-20T18:38:45.347Z,10.40
2022-12-20T18:40:50.402Z,10.40
2022-12-20T18:42:59.615Z,10.40
2022-12-20T18:45:02.159Z,10.50
2022-12-20T18:47:06.759Z,10.50
2022-12-20T18:49:10.047Z,10.50
2022-12-20T18:51:14.263Z,10.60
2022-12-20T18:53:17.143Z,10.60
2022-12-20T18:55:20.119Z,10.70
2022-12-20T18:57:23.016Z,10.70
2022-12-20T18:59:26.323Z,10.70
2022-12-20T19:01:30.554Z,10.70
2022-12-20T19:03:34.430Z,10.70
2022-12-20T19:05:37.761Z,10.70
2022-12-20T19:07:40.387Z,10.70
2022-12-20T19:09:43.336Z,10.70
2022-12-20T19:11:51.579Z,10.70
2022-12-20T19:13:52.981Z,10.70
2022-12-20T19:16:01.016Z,10.70
2022-12-20T19:18:03.957Z,10.70
2022-12-20T19:20:09.204Z,10.70
2022-12-20T19:22:13.195Z,10.80
2022-12-20T19:24:16.219Z,10.90
2022-12-20T19:26:19.835Z,10.90
2022-12-20T19:28:23.838Z,10.90
2022-12-20T19:30:27.431Z,10.90
2022-12-20T19:32:30.063Z,10.90
2022-12-20T19:34:32.765Z,11.00
2022-12-20T19:36:36.728Z,11.10
2022-12-20T19:38:42.854Z,11.10
2022-12-20T19:40:48.417Z,11.10
2022-12-20T19:42:51.114Z,11.10
2022-12-20T19:44:53.737Z,11.20
2022-12-20T19:46:56.446Z,11.10
2022-12-20T19:48:59.370Z,11.10
2022-12-20T19:51:02.310Z,11.30
2022-12-20T19:53:04.983Z,11.20
2022-12-20T19:55:08.200Z,11.20
2022-12-20T19:57:10.764Z,11.30
2022-12-20T19:59:13.843Z,11.20
2022-12-20T20:01:17.831Z,11.30
2022-12-20T20:03:21.421Z,11.30
2022-12-20T20:05:24.351Z,11.30
2022-12-20T20:07:27.237Z,11.30
2022-12-20T20:09:30.457Z,11.30
2022-12-20T20:11:33.462Z,11.30
2022-12-20T20:13:36.139Z,11.40
2022-12-20T20:15:44.180Z,11.40
2022-12-20T20:17:47.130Z,11.40
2022-12-20T20:19:51.291Z,11.40
2022-12-20T20:21:54.008Z,11.40
2022-12-20T20:23:57.561Z,11.40
2022-12-20T20:26:00.527Z,11.40
2022-12-20T20:28:04.324Z,11.40
2022-12-20T20:30:10.764Z,11.30
2022-12-20T20:32:13.381Z,11.30
2022-12-20T20:34:16.246Z,11.40
2022-12-20T20:36:19.672Z,11.40
2022-12-20T20:38:22.777Z,11.30
2022-12-20T20:40:25.903Z,11.30
2022-12-20T20:42:28.977Z,11.40
2022-12-20T20:44:31.575Z,11.30
2022-12-20T20:46:34.191Z,11.30
2022-12-20T20:48:36.876Z,11.20
2022-12-20T20:50:39.921Z,11.20
2022-12-20T20:52:42.412Z,11.20
2022-12-20T20:54:44.972Z,11.20
2022-12-20T20:56:47.599Z,11.20
2022-12-20T20:58:50.208Z,11.20
2022-12-20T21:00:54.509Z,11.20
2022-12-20T21:02:57.476Z,11.10
2022-12-20T21:05:52.455Z,11.20
2022-12-20T21:07:04.973Z,11.20
2022-12-20T21:09:07.500Z,11.10
2022-12-20T21:11:10.775Z,11.20
2022-12-20T21:13:13.816Z,11.20
2022-12-20T21:15:22.970Z,11.20
2022-12-20T21:17:22.436Z,11.20
2022-12-20T21:19:25.611Z,11.10
2022-12-20T21:21:28.387Z,11.10
2022-12-20T21:23:31.532Z,11.10
2022-12-20T21:25:34.062Z,11.10
2022-12-20T21:27:36.867Z,11.20
2022-12-20T21:29:40.206Z,11.10
2022-12-20T21:31:43.052Z,11.10
2022-12-20T21:33:45.674Z,11.10
2022-12-20T21:35:53.775Z,11.00
2022-12-20T21:37:52.964Z,11.00
2022-12-20T21:39:56.199Z,11.00
2022-12-20T21:42:01.879Z,11.00
2022-12-20T21:46:28.307Z,10.90
2022-12-20T21:48:31.648Z,10.90
2022-12-20T21:50:34.115Z,10.90
2022-12-20T21:52:37.033Z,10.90
2022-12-20T21:54:39.808Z,10.90
2022-12-20T21:56:42.310Z,10.90
2022-12-20T21:58:45.802Z,10.90
2022-12-20T22:00:54.272Z,10.80
2022-12-20T22:02:53.895Z,10.80
2022-12-20T22:04:56.509Z,10.80
2022-12-20T22:06:59.052Z,10.70
2022-12-20T22:09:02.284Z,10.70
2022-12-20T22:11:06.485Z,10.70
2022-12-20T22:13:09.633Z,10.70
2022-12-20T22:15:12.660Z,10.60
2022-12-20T22:17:15.205Z,10.70
2022-12-20T22:19:17.894Z,10.60
2022-12-20T22:21:22.363Z,10.60
2022-12-20T22:23:41.548Z,10.60
2022-12-20T22:25:45.773Z,10.60
2022-12-20T22:27:48.395Z,10.60
2022-12-20T22:29:50.923Z,10.60
2022-12-20T22:31:53.510Z,10.50
2022-12-20T22:33:56.669Z,10.60
2022-12-20T22:36:00.207Z,10.60
2022-12-20T22:38:02.978Z,10.60
2022-12-20T22:40:06.755Z,10.60
2022-12-20T22:42:09.784Z,10.50
2022-12-20T22:44:12.753Z,10.50
2022-12-20T22:46:16.865Z,10.50
2022-12-20T22:48:19.553Z,10.50
2022-12-20T22:50:22.313Z,10.50
2022-12-20T22:52:25.541Z,10.50
2022-12-20T22:54:28.595Z,10.50
2022-12-20T22:56:31.398Z,10.50
2022-12-20T22:58:34.803Z,10.40
2022-12-20T23:00:37.319Z,10.50
2022-12-20T23:02:40.919Z,10.40
2022-12-20T23:04:44.007Z,10.40
2022-12-20T23:06:46.503Z,10.40
2022-12-20T23:08:50.292Z,10.30
2022-12-20T23:11:11.721Z,10.30
2022-12-20T23:13:42.564Z,10.30
2022-12-20T23:18:03.704Z,10.30
2022-12-20T23:20:25.439Z,10.20
2022-12-20T23:22:40.293Z,10.20
2022-12-20T23:24:43.068Z,10.20
2022-12-20T23:26:45.954Z,10.20
2022-12-20T23:28:48.537Z,10.20
2022-12-20T23:30:51.006Z,10.20
2022-12-20T23:32:55.410Z,10.20
2022-12-20T23:34:58.043Z,10.20
2022-12-20T23:37:00.631Z,10.20
2022-12-20T23:39:03.802Z,10.20
2022-12-20T23:41:09.839Z,10.20
2022-12-20T23:43:12.343Z,10.20
2022-12-20T23:45:15.085Z,10.20
2022-12-20T23:47:19.128Z,10.20
2022-12-20T23:49:21.924Z,10.20
2022-12-20T23:51:24.400Z,10.20
2022-12-20T23:53:27.020Z,10.20
2022-12-20T23:55:29.477Z,10.20
2022-12-20T23:57:32.729Z,10.20
2022-12-20T23:59:35.324Z,10.20
